sensor_id;sensor_type;location;lat;lon;timestamp;temperature;humidity
10245;DHT22;5167;52.164;10.530;2024-03-22T00:00:03;11.20;21.90
10245;DHT22;5167;52.164;10.530;2024-03-22T00:02:28;11.20;21.80
10245;DHT22;5167;52.164;10.530;2024-03-22T00:04:54;11.30;22.00
10245;DHT22;5167;52.164;10.530;2024-03-22T00:07:19;11.50;22.00
10245;DHT22;5167;52.164;10.530;2024-03-22T00:09:45;11.30;22.20
10245;DHT22;5167;52.164;10.530;2024-03-22T00:12:10;11.30;21.80
10245;DHT22;5167;52.164;10.530;2024-03-22T00:14:36;11.30;21.80
10245;DHT22;5167;52.164;10.530;2024-03-22T00:17:01;11.30;22.20
10245;DHT22;5167;52.164;10.530;2024-03-22T00:19:27;11.30;22.40
10245;DHT22;5167;52.164;10.530;2024-03-22T00:21:52;11.30;22.50
10245;DHT22;5167;52.164;10.530;2024-03-22T00:24:18;11.30;22.30
10245;DHT22;5167;52.164;10.530;2024-03-22T00:26:43;11.40;22.00
10245;DHT22;5167;52.164;10.530;2024-03-22T00:29:08;11.30;22.40
10245;DHT22;5167;52.164;10.530;2024-03-22T00:31:34;11.30;22.20
10245;DHT22;5167;52.164;10.530;2024-03-22T00:33:59;11.40;22.40
10245;DHT22;5167;52.164;10.530;2024-03-22T00:36:25;11.50;22.20
10245;DHT22;5167;52.164;10.530;2024-03-22T00:38:50;11.50;22.00
10245;DHT22;5167;52.164;10.530;2024-03-22T00:41:16;11.40;21.70
10245;DHT22;5167;52.164;10.530;2024-03-22T00:43:41;11.40;21.70
10245;DHT22;5167;52.164;10.530;2024-03-22T00:46:07;11.40;21.90
10245;DHT22;5167;52.164;10.530;2024-03-22T00:48:33;11.40;22.30
10245;DHT22;5167;52.164;10.530;2024-03-22T00:51:00;11.40;22.20
10245;DHT22;5167;52.164;10.530;2024-03-22T00:53:26;11.40;22.00
10245;DHT22;5167;52.164;10.530;2024-03-22T00:55:51;11.50;22.20
10245;DHT22;5167;52.164;10.530;2024-03-22T00:58:18;11.50;22.80
10245;DHT22;5167;52.164;10.530;2024-03-22T01:00:44;11.40;22.50
10245;DHT22;5167;52.164;10.530;2024-03-22T01:03:10;11.50;22.60
10245;DHT22;5167;52.164;10.530;2024-03-22T01:05:35;11.60;22.90
10245;DHT22;5167;52.164;10.530;2024-03-22T01:08:01;11.50;22.60
10245;DHT22;5167;52.164;10.530;2024-03-22T01:10:27;11.60;22.60
10245;DHT22;5167;52.164;10.530;2024-03-22T01:12:52;11.50;22.60
10245;DHT22;5167;52.164;10.530;2024-03-22T01:15:18;11.60;22.80
10245;DHT22;5167;52.164;10.530;2024-03-22T01:17:43;11.60;23.10
10245;DHT22;5167;52.164;10.530;2024-03-22T01:20:09;11.70;23.00
10245;DHT22;5167;52.164;10.530;2024-03-22T01:22:35;11.50;23.30
10245;DHT22;5167;52.164;10.530;2024-03-22T01:25:00;11.50;23.20
10245;DHT22;5167;52.164;10.530;2024-03-22T01:27:26;11.50;23.20
10245;DHT22;5167;52.164;10.530;2024-03-22T01:29:51;11.50;23.70
10245;DHT22;5167;52.164;10.530;2024-03-22T01:32:17;11.40;23.60
10245;DHT22;5167;52.164;10.530;2024-03-22T01:34:43;11.70;24.00
10245;DHT22;5167;52.164;10.530;2024-03-22T01:37:08;11.50;24.20
10245;DHT22;5167;52.164;10.530;2024-03-22T01:39:34;11.50;23.90
10245;DHT22;5167;52.164;10.530;2024-03-22T01:42:00;11.50;23.90
10245;DHT22;5167;52.164;10.530;2024-03-22T01:44:28;11.50;23.80
10245;DHT22;5167;52.164;10.530;2024-03-22T01:46:54;11.50;22.80
10245;DHT22;5167;52.164;10.530;2024-03-22T01:49:20;11.50;22.80
10245;DHT22;5167;52.164;10.530;2024-03-22T01:51:46;11.50;23.40
10245;DHT22;5167;52.164;10.530;2024-03-22T01:54:12;11.50;23.30
10245;DHT22;5167;52.164;10.530;2024-03-22T01:56:38;11.50;23.80
10245;DHT22;5167;52.164;10.530;2024-03-22T01:59:04;11.50;22.30
10245;DHT22;5167;52.164;10.530;2024-03-22T02:01:31;11.60;22.50
10245;DHT22;5167;52.164;10.530;2024-03-22T02:03:56;11.60;22.70
10245;DHT22;5167;52.164;10.530;2024-03-22T02:06:22;11.60;22.20
10245;DHT22;5167;52.164;10.530;2024-03-22T02:08:47;11.60;22.10
10245;DHT22;5167;52.164;10.530;2024-03-22T02:11:13;11.70;23.10
10245;DHT22;5167;52.164;10.530;2024-03-22T02:13:39;11.70;22.10
10245;DHT22;5167;52.164;10.530;2024-03-22T02:16:04;11.70;22.00
10245;DHT22;5167;52.164;10.530;2024-03-22T02:18:30;11.80;23.10
10245;DHT22;5167;52.164;10.530;2024-03-22T02:20:57;11.70;22.50
10245;DHT22;5167;52.164;10.530;2024-03-22T02:25:59;11.70;22.50
10245;DHT22;5167;52.164;10.530;2024-03-22T02:28:24;11.80;22.60
10245;DHT22;5167;52.164;10.530;2024-03-22T02:30:50;11.70;22.50
10245;DHT22;5167;52.164;10.530;2024-03-22T02:33:15;11.80;22.20
10245;DHT22;5167;52.164;10.530;2024-03-22T02:35:41;11.80;22.10
10245;DHT22;5167;52.164;10.530;2024-03-22T02:38:07;11.80;21.30
10245;DHT22;5167;52.164;10.530;2024-03-22T02:40:32;11.80;21.40
10245;DHT22;5167;52.164;10.530;2024-03-22T02:42:57;11.80;21.70
10245;DHT22;5167;52.164;10.530;2024-03-22T02:45:23;11.60;21.00
10245;DHT22;5167;52.164;10.530;2024-03-22T02:47:48;11.70;22.60
10245;DHT22;5167;52.164;10.530;2024-03-22T02:50:14;11.70;22.50
10245;DHT22;5167;52.164;10.530;2024-03-22T02:52:39;11.70;22.40
10245;DHT22;5167;52.164;10.530;2024-03-22T02:55:05;11.70;22.40
10245;DHT22;5167;52.164;10.530;2024-03-22T02:57:30;11.70;22.00
10245;DHT22;5167;52.164;10.530;2024-03-22T02:59:56;11.70;22.50
10245;DHT22;5167;52.164;10.530;2024-03-22T03:02:21;11.70;22.40
10245;DHT22;5167;52.164;10.530;2024-03-22T03:04:47;11.70;22.30
10245;DHT22;5167;52.164;10.530;2024-03-22T03:07:12;11.70;22.30
10245;DHT22;5167;52.164;10.530;2024-03-22T03:09:38;11.80;22.50
10245;DHT22;5167;52.164;10.530;2024-03-22T03:12:03;11.80;22.50
10245;DHT22;5167;52.164;10.530;2024-03-22T03:14:29;11.70;22.30
10245;DHT22;5167;52.164;10.530;2024-03-22T03:16:54;11.70;22.40
10245;DHT22;5167;52.164;10.530;2024-03-22T03:19:20;11.90;22.50
10245;DHT22;5167;52.164;10.530;2024-03-22T03:21:46;11.80;22.60
10245;DHT22;5167;52.164;10.530;2024-03-22T03:24:11;11.70;22.80
10245;DHT22;5167;52.164;10.530;2024-03-22T03:26:37;11.90;22.50
10245;DHT22;5167;52.164;10.530;2024-03-22T03:29:02;11.70;22.80
10245;DHT22;5167;52.164;10.530;2024-03-22T03:31:28;11.60;22.50
10245;DHT22;5167;52.164;10.530;2024-03-22T03:33:53;11.70;22.50
10245;DHT22;5167;52.164;10.530;2024-03-22T03:36:19;11.70;22.20
10245;DHT22;5167;52.164;10.530;2024-03-22T03:38:44;11.80;22.50
10245;DHT22;5167;52.164;10.530;2024-03-22T03:41:10;11.70;22.10
10245;DHT22;5167;52.164;10.530;2024-03-22T03:43:35;11.70;22.40
10245;DHT22;5167;52.164;10.530;2024-03-22T03:46:01;11.70;22.70
10245;DHT22;5167;52.164;10.530;2024-03-22T03:48:26;11.70;22.40
10245;DHT22;5167;52.164;10.530;2024-03-22T03:50:53;11.70;22.50
10245;DHT22;5167;52.164;10.530;2024-03-22T03:53:20;11.80;22.10
10245;DHT22;5167;52.164;10.530;2024-03-22T03:55:46;11.80;22.30
10245;DHT22;5167;52.164;10.530;2024-03-22T03:58:11;11.80;22.20
10245;DHT22;5167;52.164;10.530;2024-03-22T04:00:37;11.80;22.10
10245;DHT22;5167;52.164;10.530;2024-03-22T04:03:02;11.90;22.00
10245;DHT22;5167;52.164;10.530;2024-03-22T04:05:28;11.90;21.80
10245;DHT22;5167;52.164;10.530;2024-03-22T04:07:54;11.80;21.60
10245;DHT22;5167;52.164;10.530;2024-03-22T04:10:19;11.80;21.80
10245;DHT22;5167;52.164;10.530;2024-03-22T04:12:45;11.80;21.70
10245;DHT22;5167;52.164;10.530;2024-03-22T04:15:10;11.80;22.00
10245;DHT22;5167;52.164;10.530;2024-03-22T04:17:36;11.80;21.30
10245;DHT22;5167;52.164;10.530;2024-03-22T04:20:02;11.80;21.70
10245;DHT22;5167;52.164;10.530;2024-03-22T04:22:29;11.80;21.40
10245;DHT22;5167;52.164;10.530;2024-03-22T04:24:54;11.80;21.60
10245;DHT22;5167;52.164;10.530;2024-03-22T04:27:20;12.00;21.40
10245;DHT22;5167;52.164;10.530;2024-03-22T04:29:49;12.10;21.60
10245;DHT22;5167;52.164;10.530;2024-03-22T04:32:14;11.80;21.00
10245;DHT22;5167;52.164;10.530;2024-03-22T04:34:43;11.80;21.20
10245;DHT22;5167;52.164;10.530;2024-03-22T04:37:08;11.80;21.10
10245;DHT22;5167;52.164;10.530;2024-03-22T04:39:34;11.80;21.30
10245;DHT22;5167;52.164;10.530;2024-03-22T04:42:00;11.80;20.80
10245;DHT22;5167;52.164;10.530;2024-03-22T04:44:25;11.80;20.90
10245;DHT22;5167;52.164;10.530;2024-03-22T04:46:51;11.90;20.80
10245;DHT22;5167;52.164;10.530;2024-03-22T04:49:16;11.90;20.40
10245;DHT22;5167;52.164;10.530;2024-03-22T04:51:42;12.00;20.60
10245;DHT22;5167;52.164;10.530;2024-03-22T04:54:07;12.00;20.50
10245;DHT22;5167;52.164;10.530;2024-03-22T04:56:33;12.00;20.00
10245;DHT22;5167;52.164;10.530;2024-03-22T04:58:58;12.00;20.30
10245;DHT22;5167;52.164;10.530;2024-03-22T05:01:24;12.00;19.80
10245;DHT22;5167;52.164;10.530;2024-03-22T05:03:49;12.00;20.00
10245;DHT22;5167;52.164;10.530;2024-03-22T05:06:15;12.00;20.00
10245;DHT22;5167;52.164;10.530;2024-03-22T05:08:40;12.00;20.00
10245;DHT22;5167;52.164;10.530;2024-03-22T05:11:07;11.90;20.10
10245;DHT22;5167;52.164;10.530;2024-03-22T05:13:33;12.00;20.20
10245;DHT22;5167;52.164;10.530;2024-03-22T05:15:58;12.00;20.40
10245;DHT22;5167;52.164;10.530;2024-03-22T05:18:24;11.90;20.40
10245;DHT22;5167;52.164;10.530;2024-03-22T05:20:49;12.00;20.40
10245;DHT22;5167;52.164;10.530;2024-03-22T05:23:15;12.00;20.20
10245;DHT22;5167;52.164;10.530;2024-03-22T05:25:43;11.90;20.30
10245;DHT22;5167;52.164;10.530;2024-03-22T05:28:09;11.90;20.00
10245;DHT22;5167;52.164;10.530;2024-03-22T05:30:34;12.00;19.90
10245;DHT22;5167;52.164;10.530;2024-03-22T05:33:00;12.10;19.90
10245;DHT22;5167;52.164;10.530;2024-03-22T05:35:27;12.00;20.30
10245;DHT22;5167;52.164;10.530;2024-03-22T05:37:52;12.00;20.40
10245;DHT22;5167;52.164;10.530;2024-03-22T05:40:18;12.00;20.20
10245;DHT22;5167;52.164;10.530;2024-03-22T05:42:43;12.00;20.20
10245;DHT22;5167;52.164;10.530;2024-03-22T05:45:09;12.10;20.60
10245;DHT22;5167;52.164;10.530;2024-03-22T05:47:34;12.10;20.50
10245;DHT22;5167;52.164;10.530;2024-03-22T05:50:01;12.20;21.70
10245;DHT22;5167;52.164;10.530;2024-03-22T05:52:27;12.10;21.80
10245;DHT22;5167;52.164;10.530;2024-03-22T05:54:52;12.00;22.00
10245;DHT22;5167;52.164;10.530;2024-03-22T05:57:18;12.00;22.20
10245;DHT22;5167;52.164;10.530;2024-03-22T05:59:43;12.10;22.60
10245;DHT22;5167;52.164;10.530;2024-03-22T06:02:09;12.00;22.70
10245;DHT22;5167;52.164;10.530;2024-03-22T06:04:34;12.10;22.90
10245;DHT22;5167;52.164;10.530;2024-03-22T06:07:00;12.00;23.10
10245;DHT22;5167;52.164;10.530;2024-03-22T06:09:29;12.00;23.90
10245;DHT22;5167;52.164;10.530;2024-03-22T06:12:04;12.00;23.70
10245;DHT22;5167;52.164;10.530;2024-03-22T06:14:30;12.00;23.90
10245;DHT22;5167;52.164;10.530;2024-03-22T06:16:55;12.10;24.10
10245;DHT22;5167;52.164;10.530;2024-03-22T06:19:21;12.30;24.50
10245;DHT22;5167;52.164;10.530;2024-03-22T06:21:46;12.10;23.60
10245;DHT22;5167;52.164;10.530;2024-03-22T06:24:12;12.20;23.70
10245;DHT22;5167;52.164;10.530;2024-03-22T06:26:37;12.30;23.50
10245;DHT22;5167;52.164;10.530;2024-03-22T06:29:02;12.30;24.00
10245;DHT22;5167;52.164;10.530;2024-03-22T06:31:28;12.30;24.00
10245;DHT22;5167;52.164;10.530;2024-03-22T06:33:54;12.30;24.20
10245;DHT22;5167;52.164;10.530;2024-03-22T06:36:19;12.30;24.20
10245;DHT22;5167;52.164;10.530;2024-03-22T06:38:45;12.30;23.80
10245;DHT22;5167;52.164;10.530;2024-03-22T06:41:10;12.30;24.60
10245;DHT22;5167;52.164;10.530;2024-03-22T06:43:36;12.30;25.50
10245;DHT22;5167;52.164;10.530;2024-03-22T06:46:01;12.40;24.10
10245;DHT22;5167;52.164;10.530;2024-03-22T06:48:27;12.40;24.00
10245;DHT22;5167;52.164;10.530;2024-03-22T06:50:53;12.40;24.00
10245;DHT22;5167;52.164;10.530;2024-03-22T06:53:18;12.40;24.30
10245;DHT22;5167;52.164;10.530;2024-03-22T06:55:44;12.60;24.90
10245;DHT22;5167;52.164;10.530;2024-03-22T06:58:10;12.50;24.40
10245;DHT22;5167;52.164;10.530;2024-03-22T07:00:35;12.50;24.30
10245;DHT22;5167;52.164;10.530;2024-03-22T07:03:02;12.50;24.00
10245;DHT22;5167;52.164;10.530;2024-03-22T07:05:28;12.40;23.10
10245;DHT22;5167;52.164;10.530;2024-03-22T07:07:54;12.40;23.50
10245;DHT22;5167;52.164;10.530;2024-03-22T07:10:21;12.50;23.10
10245;DHT22;5167;52.164;10.530;2024-03-22T07:12:48;12.60;23.50
10245;DHT22;5167;52.164;10.530;2024-03-22T07:15:14;12.60;22.90
10245;DHT22;5167;52.164;10.530;2024-03-22T07:17:39;12.60;23.40
10245;DHT22;5167;52.164;10.530;2024-03-22T07:20:05;12.70;23.10
10245;DHT22;5167;52.164;10.530;2024-03-22T07:22:31;12.60;22.50
10245;DHT22;5167;52.164;10.530;2024-03-22T07:24:57;12.70;22.60
10245;DHT22;5167;52.164;10.530;2024-03-22T07:27:22;12.90;22.50
10245;DHT22;5167;52.164;10.530;2024-03-22T07:29:48;12.80;21.90
10245;DHT22;5167;52.164;10.530;2024-03-22T07:32:13;12.80;22.30
10245;DHT22;5167;52.164;10.530;2024-03-22T07:34:39;13.00;22.30
10245;DHT22;5167;52.164;10.530;2024-03-22T07:37:04;12.90;21.60
10245;DHT22;5167;52.164;10.530;2024-03-22T07:39:30;12.80;21.20
10245;DHT22;5167;52.164;10.530;2024-03-22T07:41:55;12.80;21.20
10245;DHT22;5167;52.164;10.530;2024-03-22T07:44:21;12.90;21.40
10245;DHT22;5167;52.164;10.530;2024-03-22T07:46:49;13.00;21.20
10245;DHT22;5167;52.164;10.530;2024-03-22T07:49:14;13.00;21.10
10245;DHT22;5167;52.164;10.530;2024-03-22T07:51:40;12.90;21.30
10245;DHT22;5167;52.164;10.530;2024-03-22T07:54:05;12.90;21.00
10245;DHT22;5167;52.164;10.530;2024-03-22T07:56:31;13.10;21.80
10245;DHT22;5167;52.164;10.530;2024-03-22T07:58:57;13.00;21.50
10245;DHT22;5167;52.164;10.530;2024-03-22T08:01:23;13.00;21.10
10245;DHT22;5167;52.164;10.530;2024-03-22T08:03:49;13.10;20.80
10245;DHT22;5167;52.164;10.530;2024-03-22T08:06:15;13.10;20.90
10245;DHT22;5167;52.164;10.530;2024-03-22T08:08:40;13.20;20.40
10245;DHT22;5167;52.164;10.530;2024-03-22T08:11:06;13.20;20.20
10245;DHT22;5167;52.164;10.530;2024-03-22T08:13:31;13.40;20.00
10245;DHT22;5167;52.164;10.530;2024-03-22T08:15:57;13.30;19.90
10245;DHT22;5167;52.164;10.530;2024-03-22T08:18:22;13.40;19.70
10245;DHT22;5167;52.164;10.530;2024-03-22T08:20:48;13.40;18.90
10245;DHT22;5167;52.164;10.530;2024-03-22T08:23:13;13.50;18.90
10245;DHT22;5167;52.164;10.530;2024-03-22T08:25:39;13.50;19.00
10245;DHT22;5167;52.164;10.530;2024-03-22T08:28:04;13.60;18.40
10245;DHT22;5167;52.164;10.530;2024-03-22T08:30:30;13.60;17.80
10245;DHT22;5167;52.164;10.530;2024-03-22T08:32:55;13.60;17.90
10245;DHT22;5167;52.164;10.530;2024-03-22T08:35:21;13.50;17.70
10245;DHT22;5167;52.164;10.530;2024-03-22T08:37:46;13.60;18.10
10245;DHT22;5167;52.164;10.530;2024-03-22T08:40:12;13.70;18.50
10245;DHT22;5167;52.164;10.530;2024-03-22T08:42:39;13.70;18.10
10245;DHT22;5167;52.164;10.530;2024-03-22T08:45:05;13.70;17.90
10245;DHT22;5167;52.164;10.530;2024-03-22T08:47:31;13.80;17.70
10245;DHT22;5167;52.164;10.530;2024-03-22T08:49:59;13.80;17.90
10245;DHT22;5167;52.164;10.530;2024-03-22T08:52:24;13.80;17.60
10245;DHT22;5167;52.164;10.530;2024-03-22T08:54:53;14.20;17.80
10245;DHT22;5167;52.164;10.530;2024-03-22T08:57:19;13.90;17.50
10245;DHT22;5167;52.164;10.530;2024-03-22T08:59:45;14.00;16.80
10245;DHT22;5167;52.164;10.530;2024-03-22T09:02:10;14.00;17.10
10245;DHT22;5167;52.164;10.530;2024-03-22T09:04:37;14.00;16.80
10245;DHT22;5167;52.164;10.530;2024-03-22T09:07:03;14.00;16.50
10245;DHT22;5167;52.164;10.530;2024-03-22T09:09:28;14.10;16.80
10245;DHT22;5167;52.164;10.530;2024-03-22T09:11:54;14.10;15.60
10245;DHT22;5167;52.164;10.530;2024-03-22T09:14:19;14.20;16.10
10245;DHT22;5167;52.164;10.530;2024-03-22T09:16:45;14.30;16.00
10245;DHT22;5167;52.164;10.530;2024-03-22T09:19:11;14.20;15.60
10245;DHT22;5167;52.164;10.530;2024-03-22T09:21:36;14.20;15.80
10245;DHT22;5167;52.164;10.530;2024-03-22T09:24:02;14.10;15.90
10245;DHT22;5167;52.164;10.530;2024-03-22T09:26:32;14.20;16.20
10245;DHT22;5167;52.164;10.530;2024-03-22T09:28:58;14.30;16.00
10245;DHT22;5167;52.164;10.530;2024-03-22T09:31:24;14.30;15.60
10245;DHT22;5167;52.164;10.530;2024-03-22T09:33:49;14.30;15.60
10245;DHT22;5167;52.164;10.530;2024-03-22T09:36:15;14.40;15.70
10245;DHT22;5167;52.164;10.530;2024-03-22T09:38:41;14.50;15.20
10245;DHT22;5167;52.164;10.530;2024-03-22T09:41:06;14.50;15.60
10245;DHT22;5167;52.164;10.530;2024-03-22T09:43:33;14.50;15.00
10245;DHT22;5167;52.164;10.530;2024-03-22T09:46:00;14.50;15.00
10245;DHT22;5167;52.164;10.530;2024-03-22T09:48:26;14.50;14.50
10245;DHT22;5167;52.164;10.530;2024-03-22T09:50:52;14.70;14.30
10245;DHT22;5167;52.164;10.530;2024-03-22T09:53:20;14.60;12.60
10245;DHT22;5167;52.164;10.530;2024-03-22T09:55:47;14.50;12.80
10245;DHT22;5167;52.164;10.530;2024-03-22T09:58:13;14.50;13.10
10245;DHT22;5167;52.164;10.530;2024-03-22T10:00:39;14.50;13.80
10245;DHT22;5167;52.164;10.530;2024-03-22T10:03:05;14.60;13.70
10245;DHT22;5167;52.164;10.530;2024-03-22T10:05:31;14.60;13.20
10245;DHT22;5167;52.164;10.530;2024-03-22T10:07:56;14.60;13.40
10245;DHT22;5167;52.164;10.530;2024-03-22T10:10:23;14.60;11.90
10245;DHT22;5167;52.164;10.530;2024-03-22T10:12:48;14.70;12.80
10245;DHT22;5167;52.164;10.530;2024-03-22T10:15:14;14.70;12.90
10245;DHT22;5167;52.164;10.530;2024-03-22T10:17:40;14.70;12.60
10245;DHT22;5167;52.164;10.530;2024-03-22T10:20:06;14.70;13.20
10245;DHT22;5167;52.164;10.530;2024-03-22T10:22:56;14.80;13.30
10245;DHT22;5167;52.164;10.530;2024-03-22T10:25:23;14.90;13.30
10245;DHT22;5167;52.164;10.530;2024-03-22T10:27:49;14.90;12.70
10245;DHT22;5167;52.164;10.530;2024-03-22T10:30:16;15.10;12.90
10245;DHT22;5167;52.164;10.530;2024-03-22T10:32:43;15.00;12.00
10245;DHT22;5167;52.164;10.530;2024-03-22T10:35:12;15.00;11.40
10245;DHT22;5167;52.164;10.530;2024-03-22T10:37:38;15.00;11.30
10245;DHT22;5167;52.164;10.530;2024-03-22T10:40:05;15.10;10.50
10245;DHT22;5167;52.164;10.530;2024-03-22T10:42:35;15.20;10.30
10245;DHT22;5167;52.164;10.530;2024-03-22T10:45:02;15.10;10.10
10245;DHT22;5167;52.164;10.530;2024-03-22T10:47:30;15.20;9.80
10245;DHT22;5167;52.164;10.530;2024-03-22T10:50:10;15.20;10.60
10245;DHT22;5167;52.164;10.530;2024-03-22T10:52:54;15.30;10.60
10245;DHT22;5167;52.164;10.530;2024-03-22T10:55:30;15.50;10.60
10245;DHT22;5167;52.164;10.530;2024-03-22T10:57:57;15.50;9.90
10245;DHT22;5167;52.164;10.530;2024-03-22T11:00:35;15.60;9.30
10245;DHT22;5167;52.164;10.530;2024-03-22T11:03:02;15.70;8.90
10245;DHT22;5167;52.164;10.530;2024-03-22T11:05:28;15.70;9.30
10245;DHT22;5167;52.164;10.530;2024-03-22T11:08:04;15.80;8.10
10245;DHT22;5167;52.164;10.530;2024-03-22T11:10:33;15.80;7.60
10245;DHT22;5167;52.164;10.530;2024-03-22T11:13:01;15.80;5.60
10245;DHT22;5167;52.164;10.530;2024-03-22T11:15:28;15.90;5.60
10245;DHT22;5167;52.164;10.530;2024-03-22T11:17:54;15.90;6.90
10245;DHT22;5167;52.164;10.530;2024-03-22T11:20:19;16.00;6.80
10245;DHT22;5167;52.164;10.530;2024-03-22T11:22:45;16.00;6.20
10245;DHT22;5167;52.164;10.530;2024-03-22T11:25:10;16.00;5.70
10245;DHT22;5167;52.164;10.530;2024-03-22T11:27:36;15.90;5.00
10245;DHT22;5167;52.164;10.530;2024-03-22T11:30:02;15.90;5.50
10245;DHT22;5167;52.164;10.530;2024-03-22T11:32:28;16.00;5.40
10245;DHT22;5167;52.164;10.530;2024-03-22T11:34:54;16.00;5.60
10245;DHT22;5167;52.164;10.530;2024-03-22T11:37:20;16.00;6.20
10245;DHT22;5167;52.164;10.530;2024-03-22T11:39:45;16.00;7.10
10245;DHT22;5167;52.164;10.530;2024-03-22T11:42:11;16.10;8.20
10245;DHT22;5167;52.164;10.530;2024-03-22T11:44:37;16.10;9.00
10245;DHT22;5167;52.164;10.530;2024-03-22T11:47:04;16.40;10.20
10245;DHT22;5167;52.164;10.530;2024-03-22T11:49:30;16.20;10.60
10245;DHT22;5167;52.164;10.530;2024-03-22T11:51:56;16.20;10.50
10245;DHT22;5167;52.164;10.530;2024-03-22T11:54:22;16.20;8.90
10245;DHT22;5167;52.164;10.530;2024-03-22T11:56:48;16.10;8.90
10245;DHT22;5167;52.164;10.530;2024-03-22T11:59:14;16.20;8.50
10245;DHT22;5167;52.164;10.530;2024-03-22T12:01:42;16.30;8.70
10245;DHT22;5167;52.164;10.530;2024-03-22T12:04:09;16.20;8.90
10245;DHT22;5167;52.164;10.530;2024-03-22T12:06:42;16.60;9.50
10245;DHT22;5167;52.164;10.530;2024-03-22T12:09:07;16.30;9.40
10245;DHT22;5167;52.164;10.530;2024-03-22T12:11:33;16.40;7.20
10245;DHT22;5167;52.164;10.530;2024-03-22T12:13:59;16.40;8.20
10245;DHT22;5167;52.164;10.530;2024-03-22T12:16:24;16.40;7.00
10245;DHT22;5167;52.164;10.530;2024-03-22T12:18:50;16.50;5.00
10245;DHT22;5167;52.164;10.530;2024-03-22T12:21:15;16.50;5.00
10245;DHT22;5167;52.164;10.530;2024-03-22T12:23:41;16.50;5.00
10245;DHT22;5167;52.164;10.530;2024-03-22T12:26:06;16.50;5.00
10245;DHT22;5167;52.164;10.530;2024-03-22T12:28:32;16.50;5.00
10245;DHT22;5167;52.164;10.530;2024-03-22T12:30:58;16.50;5.00
10245;DHT22;5167;52.164;10.530;2024-03-22T12:33:23;16.50;5.00
10245;DHT22;5167;52.164;10.530;2024-03-22T12:35:49;16.60;5.00
10245;DHT22;5167;52.164;10.530;2024-03-22T12:38:14;16.60;5.00
10245;DHT22;5167;52.164;10.530;2024-03-22T12:40:40;16.60;5.00
10245;DHT22;5167;52.164;10.530;2024-03-22T12:43:07;16.70;5.00
10245;DHT22;5167;52.164;10.530;2024-03-22T12:45:34;16.70;5.00
10245;DHT22;5167;52.164;10.530;2024-03-22T12:47:59;16.70;5.00
10245;DHT22;5167;52.164;10.530;2024-03-22T12:50:26;16.70;5.00
10245;DHT22;5167;52.164;10.530;2024-03-22T12:52:52;16.70;5.00
10245;DHT22;5167;52.164;10.530;2024-03-22T12:55:18;16.70;5.00
10245;DHT22;5167;52.164;10.530;2024-03-22T12:57:43;16.70;5.00
10245;DHT22;5167;52.164;10.530;2024-03-22T13:00:09;16.70;5.00
10245;DHT22;5167;52.164;10.530;2024-03-22T13:02:44;16.70;5.00
10245;DHT22;5167;52.164;10.530;2024-03-22T13:05:10;16.70;5.00
10245;DHT22;5167;52.164;10.530;2024-03-22T13:07:36;16.70;5.00
10245;DHT22;5167;52.164;10.530;2024-03-22T13:10:01;16.70;5.00
10245;DHT22;5167;52.164;10.530;2024-03-22T13:12:28;16.70;5.00
10245;DHT22;5167;52.164;10.530;2024-03-22T13:14:54;16.70;5.00
10245;DHT22;5167;52.164;10.530;2024-03-22T13:17:20;16.70;5.00
10245;DHT22;5167;52.164;10.530;2024-03-22T13:19:46;16.80;5.00
10245;DHT22;5167;52.164;10.530;2024-03-22T13:22:11;16.70;5.00
10245;DHT22;5167;52.164;10.530;2024-03-22T13:24:38;16.80;5.00
10245;DHT22;5167;52.164;10.530;2024-03-22T13:27:03;16.80;5.00
10245;DHT22;5167;52.164;10.530;2024-03-22T13:29:29;16.80;5.00
10245;DHT22;5167;52.164;10.530;2024-03-22T13:31:54;16.80;5.00
10245;DHT22;5167;52.164;10.530;2024-03-22T13:34:20;16.90;5.00
10245;DHT22;5167;52.164;10.530;2024-03-22T13:36:45;16.80;5.00
10245;DHT22;5167;52.164;10.530;2024-03-22T13:39:12;16.80;5.00
10245;DHT22;5167;52.164;10.530;2024-03-22T13:41:41;16.60;5.00
10245;DHT22;5167;52.164;10.530;2024-03-22T13:44:06;16.80;5.00
10245;DHT22;5167;52.164;10.530;2024-03-22T13:46:33;16.50;5.00
10245;DHT22;5167;52.164;10.530;2024-03-22T13:49:02;16.50;5.00
10245;DHT22;5167;52.164;10.530;2024-03-22T13:51:28;16.50;5.00
10245;DHT22;5167;52.164;10.530;2024-03-22T13:53:54;16.70;5.00
10245;DHT22;5167;52.164;10.530;2024-03-22T13:56:20;16.50;5.00
10245;DHT22;5167;52.164;10.530;2024-03-22T13:58:46;16.50;5.00
10245;DHT22;5167;52.164;10.530;2024-03-22T14:01:12;16.40;5.00
10245;DHT22;5167;52.164;10.530;2024-03-22T14:03:37;16.40;5.00
10245;DHT22;5167;52.164;10.530;2024-03-22T14:06:03;16.40;5.00
10245;DHT22;5167;52.164;10.530;2024-03-22T14:08:29;16.40;5.00
10245;DHT22;5167;52.164;10.530;2024-03-22T14:10:54;16.30;5.00
10245;DHT22;5167;52.164;10.530;2024-03-22T14:13:20;16.40;5.00
10245;DHT22;5167;52.164;10.530;2024-03-22T14:15:45;16.40;5.00
10245;DHT22;5167;52.164;10.530;2024-03-22T14:18:10;16.60;5.10
10245;DHT22;5167;52.164;10.530;2024-03-22T14:20:36;16.30;5.50
10245;DHT22;5167;52.164;10.530;2024-03-22T14:23:01;16.30;6.60
10245;DHT22;5167;52.164;10.530;2024-03-22T14:25:29;16.30;7.00
10245;DHT22;5167;52.164;10.530;2024-03-22T14:27:54;16.20;7.30
10245;DHT22;5167;52.164;10.530;2024-03-22T14:30:20;16.20;7.80
10245;DHT22;5167;52.164;10.530;2024-03-22T14:32:46;16.20;8.40
10245;DHT22;5167;52.164;10.530;2024-03-22T14:35:12;16.20;9.40
10245;DHT22;5167;52.164;10.530;2024-03-22T14:37:38;16.10;10.50
10245;DHT22;5167;52.164;10.530;2024-03-22T14:40:04;16.00;11.80
10245;DHT22;5167;52.164;10.530;2024-03-22T14:42:36;15.90;12.00
10245;DHT22;5167;52.164;10.530;2024-03-22T14:45:02;15.90;13.60
10245;DHT22;5167;52.164;10.530;2024-03-22T14:47:28;15.90;13.70
10245;DHT22;5167;52.164;10.530;2024-03-22T14:49:53;15.80;13.50
10245;DHT22;5167;52.164;10.530;2024-03-22T14:52:19;15.80;13.50
10245;DHT22;5167;52.164;10.530;2024-03-22T14:54:46;15.80;14.60
10245;DHT22;5167;52.164;10.530;2024-03-22T14:57:12;15.70;14.30
10245;DHT22;5167;52.164;10.530;2024-03-22T14:59:37;15.70;16.40
10245;DHT22;5167;52.164;10.530;2024-03-22T15:02:03;15.60;17.10
10245;DHT22;5167;52.164;10.530;2024-03-22T15:04:29;15.50;18.70
10245;DHT22;5167;52.164;10.530;2024-03-22T15:06:54;15.50;19.30
10245;DHT22;5167;52.164;10.530;2024-03-22T15:09:20;15.30;19.30
10245;DHT22;5167;52.164;10.530;2024-03-22T15:11:46;15.30;20.50
10245;DHT22;5167;52.164;10.530;2024-03-22T15:14:12;15.20;21.50
10245;DHT22;5167;52.164;10.530;2024-03-22T15:16:41;15.10;23.20
10245;DHT22;5167;52.164;10.530;2024-03-22T15:19:10;15.10;23.60
10245;DHT22;5167;52.164;10.530;2024-03-22T15:21:37;15.00;24.60
10245;DHT22;5167;52.164;10.530;2024-03-22T15:24:03;15.00;24.50
10245;DHT22;5167;52.164;10.530;2024-03-22T15:26:29;15.00;25.00
10245;DHT22;5167;52.164;10.530;2024-03-22T15:28:54;15.00;25.80